sensor_id;sensor_type;location;lat;lon;timestamp;P1;durP1;ratioP1;P2;durP2;ratioP2
33862;SDS011;20158;51.436;-2.742;2022-12-18T00:02:15;10.57;;;7.82;;
33862;SDS011;20158;51.436;-2.742;2022-12-18T00:05:00;11.95;;;7.63;;
33862;SDS011;20158;51.436;-2.742;2022-12-18T00:07:44;14.63;;;8.48;;
33862;SDS011;20158;51.436;-2.742;2022-12-18T00:10:29;11.20;;;7.88;;
33862;SDS011;20158;51.436;-2.742;2022-12-18T00:13:13;10.23;;;7.03;;
33862;SDS011;20158;51.436;-2.742;2022-12-18T00:16:02;10.35;;;7.88;;
33862;SDS011;20158;51.436;-2.742;2022-12-18T00:18:49;10.70;;;7.53;;
33862;SDS011;20158;51.436;-2.742;2022-12-18T00:21:36;9.23;;;8.02;;
33862;SDS011;20158;51.436;-2.742;2022-12-18T00:24:20;13.13;;;8.70;;
33862;SDS011;20158;51.436;-2.742;2022-12-18T00:27:05;11.02;;;7.88;;
33862;SDS011;20158;51.436;-2.742;2022-12-18T00:29:49;8.18;;;6.97;;
33862;SDS011;20158;51.436;-2.742;2022-12-18T00:32:34;10.15;;;7.32;;
33862;SDS011;20158;51.436;-2.742;2022-12-18T00:35:19;10.10;;;7.60;;
33862;SDS011;20158;51.436;-2.742;2022-12-18T00:38:04;12.40;;;7.47;;
33862;SDS011;20158;51.436;-2.742;2022-12-18T00:40:50;9.70;;;6.95;;
33862;SDS011;20158;51.436;-2.742;2022-12-18T00:43:35;10.45;;;6.95;;
33862;SDS011;20158;51.436;-2.742;2022-12-18T00:46:20;10.55;;;7.45;;
33862;SDS011;20158;51.436;-2.742;2022-12-18T00:49:05;8.77;;;7.18;;
33862;SDS011;20158;51.436;-2.742;2022-12-18T00:51:51;9.27;;;7.07;;
33862;SDS011;20158;51.436;-2.742;2022-12-18T00:54:35;11.82;;;7.80;;
33862;SDS011;20158;51.436;-2.742;2022-12-18T00:57:20;11.05;;;7.22;;
33862;SDS011;20158;51.436;-2.742;2022-12-18T01:00:05;9.52;;;7.03;;
33862;SDS011;20158;51.436;-2.742;2022-12-18T01:02:52;11.85;;;7.30;;
33862;SDS011;20158;51.436;-2.742;2022-12-18T01:05:38;14.07;;;8.80;;
33862;SDS011;20158;51.436;-2.742;2022-12-18T01:08:24;16.15;;;8.20;;
33862;SDS011;20158;51.436;-2.742;2022-12-18T01:11:12;11.05;;;7.45;;
33862;SDS011;20158;51.436;-2.742;2022-12-18T01:13:59;9.13;;;7.57;;
33862;SDS011;20158;51.436;-2.742;2022-12-18T01:16:44;10.40;;;6.85;;
33862;SDS011;20158;51.436;-2.742;2022-12-18T01:19:29;10.35;;;7.35;;
33862;SDS011;20158;51.436;-2.742;2022-12-18T01:22:14;9.95;;;7.10;;
33862;SDS011;20158;51.436;-2.742;2022-12-18T01:24:58;9.77;;;6.80;;
33862;SDS011;20158;51.436;-2.742;2022-12-18T01:27:43;8.07;;;6.55;;
33862;SDS011;20158;51.436;-2.742;2022-12-18T01:30:27;7.95;;;6.40;;
33862;SDS011;20158;51.436;-2.742;2022-12-18T01:33:12;10.15;;;7.00;;
33862;SDS011;20158;51.436;-2.742;2022-12-18T01:35:57;10.57;;;7.43;;
33862;SDS011;20158;51.436;-2.742;2022-12-18T01:38:41;9.52;;;7.60;;
33862;SDS011;20158;51.436;-2.742;2022-12-18T01:41:27;8.95;;;7.40;;
33862;SDS011;20158;51.436;-2.742;2022-12-18T01:50:30;8.45;;;7.47;;
33862;SDS011;20158;51.436;-2.742;2022-12-18T01:53:17;8.25;;;6.55;;
33862;SDS011;20158;51.436;-2.742;2022-12-18T01:56:04;8.55;;;7.13;;
33862;SDS011;20158;51.436;-2.742;2022-12-18T01:58:58;10.13;;;7.45;;
33862;SDS011;20158;51.436;-2.742;2022-12-18T02:01:49;8.20;;;7.20;;
33862;SDS011;20158;51.436;-2.742;2022-12-18T02:04:33;12.00;;;7.95;;
33862;SDS011;20158;51.436;-2.742;2022-12-18T02:07:29;10.55;;;6.88;;
33862;SDS011;20158;51.436;-2.742;2022-12-18T02:11:04;8.30;;;7.32;;
33862;SDS011;20158;51.436;-2.742;2022-12-18T02:14:03;9.98;;;7.28;;
33862;SDS011;20158;51.436;-2.742;2022-12-18T02:17:11;10.55;;;6.93;;
33862;SDS011;20158;51.436;-2.742;2022-12-18T02:20:07;10.35;;;7.18;;
33862;SDS011;20158;51.436;-2.742;2022-12-18T02:29:11;10.25;;;6.72;;
33862;SDS011;20158;51.436;-2.742;2022-12-18T02:32:00;8.85;;;7.13;;
33862;SDS011;20158;51.436;-2.742;2022-12-18T02:34:46;7.90;;;6.70;;
33862;SDS011;20158;51.436;-2.742;2022-12-18T02:37:33;16.17;;;6.90;;
33862;SDS011;20158;51.436;-2.742;2022-12-18T02:40:23;7.97;;;6.63;;
33862;SDS011;20158;51.436;-2.742;2022-12-18T02:43:11;12.02;;;7.82;;
33862;SDS011;20158;51.436;-2.742;2022-12-18T02:45:58;14.13;;;7.40;;
33862;SDS011;20158;51.436;-2.742;2022-12-18T02:48:47;10.80;;;7.63;;
33862;SDS011;20158;51.436;-2.742;2022-12-18T02:51:39;9.93;;;7.32;;
33862;SDS011;20158;51.436;-2.742;2022-12-18T03:00:33;8.77;;;7.05;;
33862;SDS011;20158;51.436;-2.742;2022-12-18T03:03:24;10.90;;;7.05;;
33862;SDS011;20158;51.436;-2.742;2022-12-18T03:09:09;8.05;;;6.50;;
33862;SDS011;20158;51.436;-2.742;2022-12-18T03:12:01;11.55;;;7.07;;
33862;SDS011;20158;51.436;-2.742;2022-12-18T03:15:17;11.48;;;7.93;;
33862;SDS011;20158;51.436;-2.742;2022-12-18T03:18:23;9.40;;;6.40;;
33862;SDS011;20158;51.436;-2.742;2022-12-18T03:21:21;8.07;;;6.57;;
33862;SDS011;20158;51.436;-2.742;2022-12-18T03:24:12;9.52;;;8.23;;
33862;SDS011;20158;51.436;-2.742;2022-12-18T03:27:00;11.95;;;6.97;;
33862;SDS011;20158;51.436;-2.742;2022-12-18T03:29:49;9.00;;;6.65;;
33862;SDS011;20158;51.436;-2.742;2022-12-18T03:33:05;9.75;;;6.90;;
33862;SDS011;20158;51.436;-2.742;2022-12-18T03:35:55;13.07;;;7.38;;
33862;SDS011;20158;51.436;-2.742;2022-12-18T03:38:40;8.25;;;7.03;;
33862;SDS011;20158;51.436;-2.742;2022-12-18T03:41:34;9.30;;;7.47;;
33862;SDS011;20158;51.436;-2.742;2022-12-18T03:44:40;11.02;;;8.00;;
33862;SDS011;20158;51.436;-2.742;2022-12-18T03:47:31;14.43;;;8.00;;
33862;SDS011;20158;51.436;-2.742;2022-12-18T03:50:27;10.55;;;7.57;;
33862;SDS011;20158;51.436;-2.742;2022-12-18T03:56:35;10.73;;;8.60;;
33862;SDS011;20158;51.436;-2.742;2022-12-18T03:59:27;13.30;;;7.80;;
33862;SDS011;20158;51.436;-2.742;2022-12-18T04:02:15;11.23;;;7.03;;
33862;SDS011;20158;51.436;-2.742;2022-12-18T04:05:01;10.20;;;7.38;;
33862;SDS011;20158;51.436;-2.742;2022-12-18T04:07:49;9.95;;;7.15;;
33862;SDS011;20158;51.436;-2.742;2022-12-18T04:10:39;11.90;;;8.02;;
33862;SDS011;20158;51.436;-2.742;2022-12-18T04:13:24;8.90;;;7.32;;
33862;SDS011;20158;51.436;-2.742;2022-12-18T04:16:14;12.07;;;7.72;;
33862;SDS011;20158;51.436;-2.742;2022-12-18T04:19:01;12.45;;;7.20;;
33862;SDS011;20158;51.436;-2.742;2022-12-18T04:21:48;12.93;;;8.38;;
33862;SDS011;20158;51.436;-2.742;2022-12-18T04:24:33;10.73;;;7.57;;
33862;SDS011;20158;51.436;-2.742;2022-12-18T04:27:33;9.80;;;7.20;;
33862;SDS011;20158;51.436;-2.742;2022-12-18T04:30:19;11.05;;;8.20;;
33862;SDS011;20158;51.436;-2.742;2022-12-18T04:33:07;11.70;;;8.13;;
33862;SDS011;20158;51.436;-2.742;2022-12-18T04:35:53;10.30;;;8.00;;
33862;SDS011;20158;51.436;-2.742;2022-12-18T04:38:38;9.73;;;8.05;;
33862;SDS011;20158;51.436;-2.742;2022-12-18T04:41:26;10.65;;;7.38;;
33862;SDS011;20158;51.436;-2.742;2022-12-18T04:44:11;9.32;;;7.72;;
33862;SDS011;20158;51.436;-2.742;2022-12-18T04:46:56;9.23;;;7.60;;
33862;SDS011;20158;51.436;-2.742;2022-12-18T04:49:41;13.25;;;9.15;;
33862;SDS011;20158;51.436;-2.742;2022-12-18T04:52:26;11.40;;;7.10;;
33862;SDS011;20158;51.436;-2.742;2022-12-18T04:55:10;14.40;;;8.40;;
33862;SDS011;20158;51.436;-2.742;2022-12-18T04:57:55;11.95;;;8.40;;
33862;SDS011;20158;51.436;-2.742;2022-12-18T05:00:39;10.23;;;8.20;;
33862;SDS011;20158;51.436;-2.742;2022-12-18T05:03:24;9.82;;;7.57;;
33862;SDS011;20158;51.436;-2.742;2022-12-18T05:06:09;10.18;;;8.30;;
33862;SDS011;20158;51.436;-2.742;2022-12-18T05:08:54;9.32;;;7.75;;
33862;SDS011;20158;51.436;-2.742;2022-12-18T05:11:38;11.23;;;8.30;;
33862;SDS011;20158;51.436;-2.742;2022-12-18T05:14:23;11.45;;;8.15;;
33862;SDS011;20158;51.436;-2.742;2022-12-18T05:17:07;14.25;;;9.00;;
33862;SDS011;20158;51.436;-2.742;2022-12-18T05:19:52;13.88;;;8.38;;
33862;SDS011;20158;51.436;-2.742;2022-12-18T05:22:37;11.45;;;8.23;;
33862;SDS011;20158;51.436;-2.742;2022-12-18T05:25:22;13.13;;;8.40;;
33862;SDS011;20158;51.436;-2.742;2022-12-18T05:28:06;12.88;;;8.55;;
33862;SDS011;20158;51.436;-2.742;2022-12-18T05:30:52;11.55;;;8.13;;
33862;SDS011;20158;51.436;-2.742;2022-12-18T05:33:41;13.48;;;8.25;;
33862;SDS011;20158;51.436;-2.742;2022-12-18T05:36:25;11.85;;;8.32;;
33862;SDS011;20158;51.436;-2.742;2022-12-18T05:39:10;12.95;;;9.40;;
33862;SDS011;20158;51.436;-2.742;2022-12-18T05:41:55;11.23;;;8.90;;
33862;SDS011;20158;51.436;-2.742;2022-12-18T05:44:39;11.02;;;8.02;;
33862;SDS011;20158;51.436;-2.742;2022-12-18T05:47:24;12.52;;;8.98;;
33862;SDS011;20158;51.436;-2.742;2022-12-18T05:50:08;12.75;;;8.95;;
33862;SDS011;20158;51.436;-2.742;2022-12-18T05:52:53;10.40;;;8.02;;
33862;SDS011;20158;51.436;-2.742;2022-12-18T05:55:38;11.15;;;8.55;;
33862;SDS011;20158;51.436;-2.742;2022-12-18T05:58:24;14.43;;;9.07;;
33862;SDS011;20158;51.436;-2.742;2022-12-18T06:01:14;11.15;;;8.40;;
33862;SDS011;20158;51.436;-2.742;2022-12-18T06:04:01;13.23;;;8.65;;
33862;SDS011;20158;51.436;-2.742;2022-12-18T06:06:46;12.80;;;8.40;;
33862;SDS011;20158;51.436;-2.742;2022-12-18T06:09:31;11.73;;;8.13;;
33862;SDS011;20158;51.436;-2.742;2022-12-18T06:12:15;11.25;;;8.50;;
33862;SDS011;20158;51.436;-2.742;2022-12-18T06:15:00;13.50;;;9.07;;
33862;SDS011;20158;51.436;-2.742;2022-12-18T06:17:45;11.95;;;8.95;;
33862;SDS011;20158;51.436;-2.742;2022-12-18T06:20:30;13.45;;;8.45;;
33862;SDS011;20158;51.436;-2.742;2022-12-18T06:23:15;13.20;;;8.95;;
33862;SDS011;20158;51.436;-2.742;2022-12-18T06:26:03;12.05;;;9.50;;
33862;SDS011;20158;51.436;-2.742;2022-12-18T06:28:48;12.82;;;10.25;;
33862;SDS011;20158;51.436;-2.742;2022-12-18T06:31:33;11.23;;;8.77;;
33862;SDS011;20158;51.436;-2.742;2022-12-18T06:34:18;14.38;;;10.07;;
33862;SDS011;20158;51.436;-2.742;2022-12-18T06:37:02;14.55;;;9.43;;
33862;SDS011;20158;51.436;-2.742;2022-12-18T06:39:47;13.68;;;10.80;;
33862;SDS011;20158;51.436;-2.742;2022-12-18T06:42:32;16.05;;;9.80;;
33862;SDS011;20158;51.436;-2.742;2022-12-18T06:45:16;12.55;;;10.60;;
33862;SDS011;20158;51.436;-2.742;2022-12-18T06:48:01;12.70;;;10.38;;
33862;SDS011;20158;51.436;-2.742;2022-12-18T06:50:45;12.93;;;9.05;;
33862;SDS011;20158;51.436;-2.742;2022-12-18T06:53:31;14.68;;;10.30;;
33862;SDS011;20158;51.436;-2.742;2022-12-18T06:56:16;14.15;;;10.40;;
33862;SDS011;20158;51.436;-2.742;2022-12-18T06:59:01;15.10;;;10.10;;
33862;SDS011;20158;51.436;-2.742;2022-12-18T07:01:45;14.10;;;10.15;;
33862;SDS011;20158;51.436;-2.742;2022-12-18T07:04:30;12.93;;;8.95;;
33862;SDS011;20158;51.436;-2.742;2022-12-18T07:07:15;16.98;;;10.07;;
33862;SDS011;20158;51.436;-2.742;2022-12-18T07:10:00;13.80;;;8.95;;
33862;SDS011;20158;51.436;-2.742;2022-12-18T07:12:44;14.55;;;10.00;;
33862;SDS011;20158;51.436;-2.742;2022-12-18T07:15:29;14.88;;;9.63;;
33862;SDS011;20158;51.436;-2.742;2022-12-18T07:18:14;11.60;;;9.07;;
33862;SDS011;20158;51.436;-2.742;2022-12-18T07:21:02;12.25;;;9.73;;
33862;SDS011;20158;51.436;-2.742;2022-12-18T07:23:47;13.40;;;9.35;;
33862;SDS011;20158;51.436;-2.742;2022-12-18T07:26:32;10.70;;;8.32;;
33862;SDS011;20158;51.436;-2.742;2022-12-18T07:29:17;14.27;;;8.75;;
33862;SDS011;20158;51.436;-2.742;2022-12-18T07:32:01;10.65;;;8.45;;
33862;SDS011;20158;51.436;-2.742;2022-12-18T07:34:46;12.52;;;8.23;;
33862;SDS011;20158;51.436;-2.742;2022-12-18T07:37:30;11.45;;;8.23;;
33862;SDS011;20158;51.436;-2.742;2022-12-18T07:40:15;12.93;;;8.98;;
33862;SDS011;20158;51.436;-2.742;2022-12-18T07:43:00;10.13;;;7.90;;
33862;SDS011;20158;51.436;-2.742;2022-12-18T07:45:44;12.57;;;9.15;;
33862;SDS011;20158;51.436;-2.742;2022-12-18T07:48:29;10.55;;;7.90;;
33862;SDS011;20158;51.436;-2.742;2022-12-18T07:51:14;10.55;;;8.65;;
33862;SDS011;20158;51.436;-2.742;2022-12-18T07:53:58;12.45;;;7.80;;
33862;SDS011;20158;51.436;-2.742;2022-12-18T07:56:43;10.95;;;8.75;;
33862;SDS011;20158;51.436;-2.742;2022-12-18T07:59:28;10.60;;;7.72;;
33862;SDS011;20158;51.436;-2.742;2022-12-18T08:02:13;11.52;;;8.45;;
33862;SDS011;20158;51.436;-2.742;2022-12-18T08:04:58;12.73;;;7.20;;
33862;SDS011;20158;51.436;-2.742;2022-12-18T08:07:43;12.23;;;7.63;;
33862;SDS011;20158;51.436;-2.742;2022-12-18T08:10:27;10.48;;;8.43;;
33862;SDS011;20158;51.436;-2.742;2022-12-18T08:13:12;10.27;;;7.55;;
33862;SDS011;20158;51.436;-2.742;2022-12-18T08:16:04;10.73;;;7.90;;
33862;SDS011;20158;51.436;-2.742;2022-12-18T08:18:51;10.20;;;7.60;;
33862;SDS011;20158;51.436;-2.742;2022-12-18T08:21:35;10.10;;;6.97;;
33862;SDS011;20158;51.436;-2.742;2022-12-18T08:24:20;11.23;;;7.78;;
33862;SDS011;20158;51.436;-2.742;2022-12-18T08:27:05;12.20;;;9.05;;
33862;SDS011;20158;51.436;-2.742;2022-12-18T08:29:50;10.90;;;8.52;;
33862;SDS011;20158;51.436;-2.742;2022-12-18T08:32:34;12.13;;;8.30;;
33862;SDS011;20158;51.436;-2.742;2022-12-18T08:35:19;10.35;;;8.52;;
33862;SDS011;20158;51.436;-2.742;2022-12-18T08:38:04;8.80;;;7.20;;
33862;SDS011;20158;51.436;-2.742;2022-12-18T08:40:48;11.98;;;9.13;;
33862;SDS011;20158;51.436;-2.742;2022-12-18T08:43:33;13.82;;;8.45;;
33862;SDS011;20158;51.436;-2.742;2022-12-18T08:46:37;10.65;;;8.80;;
33862;SDS011;20158;51.436;-2.742;2022-12-18T08:49:23;13.23;;;9.13;;
33862;SDS011;20158;51.436;-2.742;2022-12-18T08:52:08;14.18;;;8.75;;
33862;SDS011;20158;51.436;-2.742;2022-12-18T08:54:52;13.68;;;10.02;;
33862;SDS011;20158;51.436;-2.742;2022-12-18T08:57:37;11.57;;;9.30;;
33862;SDS011;20158;51.436;-2.742;2022-12-18T09:00:21;18.20;;;9.35;;
33862;SDS011;20158;51.436;-2.742;2022-12-18T09:03:10;11.10;;;9.00;;
33862;SDS011;20158;51.436;-2.742;2022-12-18T09:06:01;14.82;;;9.70;;
33862;SDS011;20158;51.436;-2.742;2022-12-18T09:08:46;14.77;;;8.10;;
33862;SDS011;20158;51.436;-2.742;2022-12-18T09:11:31;13.45;;;9.50;;
33862;SDS011;20158;51.436;-2.742;2022-12-18T09:14:16;16.13;;;11.40;;
33862;SDS011;20158;51.436;-2.742;2022-12-18T09:17:01;14.48;;;10.30;;
33862;SDS011;20158;51.436;-2.742;2022-12-18T09:19:45;14.73;;;10.30;;
33862;SDS011;20158;51.436;-2.742;2022-12-18T09:22:30;12.20;;;9.55;;
33862;SDS011;20158;51.436;-2.742;2022-12-18T09:25:15;15.18;;;10.13;;
33862;SDS011;20158;51.436;-2.742;2022-12-18T09:28:00;15.45;;;11.05;;
33862;SDS011;20158;51.436;-2.742;2022-12-18T09:30:48;13.05;;;9.90;;
33862;SDS011;20158;51.436;-2.742;2022-12-18T09:33:36;13.18;;;10.27;;
33862;SDS011;20158;51.436;-2.742;2022-12-18T09:36:21;12.75;;;9.77;;
33862;SDS011;20158;51.436;-2.742;2022-12-18T09:39:05;14.63;;;10.95;;
33862;SDS011;20158;51.436;-2.742;2022-12-18T09:41:51;13.35;;;10.48;;
33862;SDS011;20158;51.436;-2.742;2022-12-18T09:44:41;12.45;;;9.70;;
33862;SDS011;20158;51.436;-2.742;2022-12-18T09:47:34;15.23;;;10.45;;
33862;SDS011;20158;51.436;-2.742;2022-12-18T09:50:27;13.90;;;9.93;;
33862;SDS011;20158;51.436;-2.742;2022-12-18T09:53:25;13.50;;;9.73;;
33862;SDS011;20158;51.436;-2.742;2022-12-18T09:56:16;14.88;;;9.65;;
33862;SDS011;20158;51.436;-2.742;2022-12-18T09:59:03;14.60;;;11.07;;
33862;SDS011;20158;51.436;-2.742;2022-12-18T10:01:48;13.02;;;9.27;;
33862;SDS011;20158;51.436;-2.742;2022-12-18T10:04:33;12.75;;;9.73;;
33862;SDS011;20158;51.436;-2.742;2022-12-18T10:07:23;18.38;;;11.30;;
33862;SDS011;20158;51.436;-2.742;2022-12-18T10:10:20;13.80;;;10.13;;
33862;SDS011;20158;51.436;-2.742;2022-12-18T10:13:31;17.40;;;10.30;;
33862;SDS011;20158;51.436;-2.742;2022-12-18T10:16:24;16.45;;;10.88;;
33862;SDS011;20158;51.436;-2.742;2022-12-18T10:22:27;15.25;;;10.45;;
33862;SDS011;20158;51.436;-2.742;2022-12-18T10:28:13;14.90;;;10.13;;
33862;SDS011;20158;51.436;-2.742;2022-12-18T10:30:59;15.18;;;10.82;;
33862;SDS011;20158;51.436;-2.742;2022-12-18T10:33:43;15.43;;;10.00;;
33862;SDS011;20158;51.436;-2.742;2022-12-18T10:36:28;12.32;;;9.65;;
33862;SDS011;20158;51.436;-2.742;2022-12-18T10:42:24;14.32;;;10.30;;
33862;SDS011;20158;51.436;-2.742;2022-12-18T10:45:10;16.75;;;10.65;;
33862;SDS011;20158;51.436;-2.742;2022-12-18T10:47:57;17.00;;;10.85;;
33862;SDS011;20158;51.436;-2.742;2022-12-18T10:50:42;13.88;;;9.57;;
33862;SDS011;20158;51.436;-2.742;2022-12-18T10:53:33;15.48;;;9.90;;
33862;SDS011;20158;51.436;-2.742;2022-12-18T10:56:20;14.05;;;10.10;;
33862;SDS011;20158;51.436;-2.742;2022-12-18T10:59:06;15.10;;;9.98;;
33862;SDS011;20158;51.436;-2.742;2022-12-18T11:01:56;12.52;;;10.27;;
33862;SDS011;20158;51.436;-2.742;2022-12-18T11:04:50;14.70;;;11.00;;
33862;SDS011;20158;51.436;-2.742;2022-12-18T11:10:35;13.38;;;10.23;;
33862;SDS011;20158;51.436;-2.742;2022-12-18T11:13:22;13.70;;;9.90;;
33862;SDS011;20158;51.436;-2.742;2022-12-18T11:16:17;18.20;;;11.20;;
33862;SDS011;20158;51.436;-2.742;2022-12-18T11:19:13;15.55;;;11.30;;
33862;SDS011;20158;51.436;-2.742;2022-12-18T11:22:20;12.68;;;10.43;;
33862;SDS011;20158;51.436;-2.742;2022-12-18T11:25:06;12.95;;;10.23;;
33862;SDS011;20158;51.436;-2.742;2022-12-18T11:34:10;12.60;;;9.35;;
33862;SDS011;20158;51.436;-2.742;2022-12-18T11:37:07;13.30;;;9.93;;
33862;SDS011;20158;51.436;-2.742;2022-12-18T11:39:55;10.07;;;8.70;;
33862;SDS011;20158;51.436;-2.742;2022-12-18T11:43:06;13.07;;;9.85;;
33862;SDS011;20158;51.436;-2.742;2022-12-18T11:45:59;12.95;;;9.15;;
33862;SDS011;20158;51.436;-2.742;2022-12-18T11:48:58;12.80;;;9.77;;
33862;SDS011;20158;51.436;-2.742;2022-12-18T11:51:49;13.20;;;10.10;;
33862;SDS011;20158;51.436;-2.742;2022-12-18T11:54:34;11.18;;;8.80;;
33862;SDS011;20158;51.436;-2.742;2022-12-18T12:00:25;13.18;;;9.20;;
33862;SDS011;20158;51.436;-2.742;2022-12-18T12:14:39;12.77;;;9.38;;
33862;SDS011;20158;51.436;-2.742;2022-12-18T12:17:40;10.90;;;8.07;;
33862;SDS011;20158;51.436;-2.742;2022-12-18T12:23:50;9.50;;;8.18;;
33862;SDS011;20158;51.436;-2.742;2022-12-18T12:32:52;8.13;;;6.93;;
33862;SDS011;20158;51.436;-2.742;2022-12-18T12:36:08;8.73;;;7.80;;
33862;SDS011;20158;51.436;-2.742;2022-12-18T12:39:07;8.40;;;7.18;;
33862;SDS011;20158;51.436;-2.742;2022-12-18T12:42:02;8.63;;;6.88;;
33862;SDS011;20158;51.436;-2.742;2022-12-18T12:45:11;7.47;;;6.47;;
33862;SDS011;20158;51.436;-2.742;2022-12-18T12:48:02;6.70;;;5.95;;
33862;SDS011;20158;51.436;-2.742;2022-12-18T12:50:50;7.10;;;5.88;;
33862;SDS011;20158;51.436;-2.742;2022-12-18T12:53:36;7.07;;;5.65;;
33862;SDS011;20158;51.436;-2.742;2022-12-18T12:56:32;7.70;;;5.78;;
33862;SDS011;20158;51.436;-2.742;2022-12-18T12:59:31;6.18;;;5.57;;
33862;SDS011;20158;51.436;-2.742;2022-12-18T13:05:43;6.28;;;5.30;;
33862;SDS011;20158;51.436;-2.742;2022-12-18T13:08:51;6.70;;;5.28;;
33862;SDS011;20158;51.436;-2.742;2022-12-18T13:14:45;5.00;;;4.35;;
33862;SDS011;20158;51.436;-2.742;2022-12-18T13:17:30;5.50;;;4.68;;
33862;SDS011;20158;51.436;-2.742;2022-12-18T13:20:15;5.82;;;4.35;;
33862;SDS011;20158;51.436;-2.742;2022-12-18T13:23:00;5.80;;;4.55;;
33862;SDS011;20158;51.436;-2.742;2022-12-18T13:25:44;4.88;;;4.20;;
33862;SDS011;20158;51.436;-2.742;2022-12-18T13:34:25;7.22;;;4.50;;
33862;SDS011;20158;51.436;-2.742;2022-12-18T13:43:36;3.83;;;3.47;;
33862;SDS011;20158;51.436;-2.742;2022-12-18T13:46:45;6.05;;;4.30;;
33862;SDS011;20158;51.436;-2.742;2022-12-18T13:52:28;4.00;;;2.85;;
33862;SDS011;20158;51.436;-2.742;2022-12-18T13:55:18;3.35;;;2.40;;
33862;SDS011;20158;51.436;-2.742;2022-12-18T13:58:04;3.78;;;1.83;;
33862;SDS011;20158;51.436;-2.742;2022-12-18T14:00:49;2.50;;;2.30;;
33862;SDS011;20158;51.436;-2.742;2022-12-18T14:03:34;9.82;;;1.67;;
33862;SDS011;20158;51.436;-2.742;2022-12-18T14:06:18;2.28;;;1.52;;
33862;SDS011;20158;51.436;-2.742;2022-12-18T14:09:03;1.95;;;1.27;;
33862;SDS011;20158;51.436;-2.742;2022-12-18T14:11:49;1.67;;;1.23;;
33862;SDS011;20158;51.436;-2.742;2022-12-18T14:14:34;3.33;;;1.17;;
33862;SDS011;20158;51.436;-2.742;2022-12-18T14:17:19;1.23;;;1.00;;
33862;SDS011;20158;51.436;-2.742;2022-12-18T14:20:04;2.60;;;1.35;;
33862;SDS011;20158;51.436;-2.742;2022-12-18T14:22:56;0.80;;;0.80;;
33862;SDS011;20158;51.436;-2.742;2022-12-18T14:25:45;1.50;;;1.17;;
33862;SDS011;20158;51.436;-2.742;2022-12-18T14:28:30;0.80;;;0.80;;
33862;SDS011;20158;51.436;-2.742;2022-12-18T14:31:21;0.85;;;0.80;;
33862;SDS011;20158;51.436;-2.742;2022-12-18T14:34:14;3.53;;;0.73;;
33862;SDS011;20158;51.436;-2.742;2022-12-18T14:36:59;1.80;;;0.60;;
33862;SDS011;20158;51.436;-2.742;2022-12-18T14:42:39;2.78;;;0.70;;
33862;SDS011;20158;51.436;-2.742;2022-12-18T14:45:33;1.25;;;0.70;;
33862;SDS011;20158;51.436;-2.742;2022-12-18T14:51:24;0.70;;;0.60;;
33862;SDS011;20158;51.436;-2.742;2022-12-18T14:54:15;0.70;;;0.50;;
33862;SDS011;20158;51.436;-2.742;2022-12-18T15:00:06;0.60;;;0.40;;
33862;SDS011;20158;51.436;-2.742;2022-12-18T15:02:59;1.75;;;0.60;;
33862;SDS011;20158;51.436;-2.742;2022-12-18T15:05:43;5.57;;;0.70;;
33862;SDS011;20158;51.436;-2.742;2022-12-18T15:08:29;0.77;;;0.60;;
33862;SDS011;20158;51.436;-2.742;2022-12-18T15:11:27;1.70;;;1.23;;
33862;SDS011;20158;51.436;-2.742;2022-12-18T15:14:24;2.28;;;1.45;;
33862;SDS011;20158;51.436;-2.742;2022-12-18T15:17:19;1.08;;;0.80;;
33862;SDS011;20158;51.436;-2.742;2022-12-18T15:20:09;1.88;;;1.35;;
33862;SDS011;20158;51.436;-2.742;2022-12-18T15:22:55;1.45;;;1.13;;
33862;SDS011;20158;51.436;-2.742;2022-12-18T15:25:40;1.90;;;0.80;;
33862;SDS011;20158;51.436;-2.742;2022-12-18T15:28:30;2.22;;;1.35;;
33862;SDS011;20158;51.436;-2.742;2022-12-18T15:34:30;1.42;;;0.90;;
33862;SDS011;20158;51.436;-2.742;2022-12-18T15:37:15;11.07;;;1.38;;
33862;SDS011;20158;51.436;-2.742;2022-12-18T15:40:00;1.15;;;0.80;;
33862;SDS011;20158;51.436;-2.742;2022-12-18T15:42:46;3.17;;;0.90;;
33862;SDS011;20158;51.436;-2.742;2022-12-18T15:45:50;5.30;;;0.60;;
33862;SDS011;20158;51.436;-2.742;2022-12-18T15:48:35;1.98;;;0.60;;
33862;SDS011;20158;51.436;-2.742;2022-12-18T15:54:11;1.55;;;0.88;;
33862;SDS011;20158;51.436;-2.742;2022-12-18T15:57:00;1.00;;;0.52;;
33862;SDS011;20158;51.436;-2.742;2022-12-18T16:00:03;0.70;;;0.60;;
33862;SDS011;20158;51.436;-2.742;2022-12-18T16:02:48;1.92;;;0.98;;
33862;SDS011;20158;51.436;-2.742;2022-12-18T16:05:32;0.88;;;0.60;;
33862;SDS011;20158;51.436;-2.742;2022-12-18T16:08:17;1.00;;;0.50;;
33862;SDS011;20158;51.436;-2.742;2022-12-18T16:11:02;1.15;;;0.60;;
33862;SDS011;20158;51.436;-2.742;2022-12-18T16:13:46;0.55;;;0.55;;
33862;SDS011;20158;51.436;-2.742;2022-12-18T16:16:31;0.80;;;0.65;;
33862;SDS011;20158;51.436;-2.742;2022-12-18T16:19:15;1.55;;;0.85;;
33862;SDS011;20158;51.436;-2.742;2022-12-18T16:22:00;1.08;;;0.57;;
33862;SDS011;20158;51.436;-2.742;2022-12-18T16:24:44;1.60;;;0.52;;
33862;SDS011;20158;51.436;-2.742;2022-12-18T16:27:29;1.27;;;0.50;;
33862;SDS011;20158;51.436;-2.742;2022-12-18T16:30:14;0.70;;;0.65;;
33862;SDS011;20158;51.436;-2.742;2022-12-18T16:33:00;1.33;;;0.60;;
33862;SDS011;20158;51.436;-2.742;2022-12-18T16:35:50;0.35;;;0.32;;
33862;SDS011;20158;51.436;-2.742;2022-12-18T16:38:35;0.70;;;0.50;;
33862;SDS011;20158;51.436;-2.742;2022-12-18T16:41:20;1.63;;;0.60;;
33862;SDS011;20158;51.436;-2.742;2022-12-18T16:44:16;1.15;;;0.90;;
33862;SDS011;20158;51.436;-2.742;2022-12-18T16:47:01;0.38;;;0.38;;
33862;SDS011;20158;51.436;-2.742;2022-12-18T16:49:46;0.60;;;0.60;;
33862;SDS011;20158;51.436;-2.742;2022-12-18T16:52:34;1.23;;;0.50;;
33862;SDS011;20158;51.436;-2.742;2022-12-18T16:55:19;5.07;;;0.80;;
33862;SDS011;20158;51.436;-2.742;2022-12-18T16:58:04;0.70;;;0.47;;
33862;SDS011;20158;51.436;-2.742;2022-12-18T17:00:49;1.13;;;0.63;;
33862;SDS011;20158;51.436;-2.742;2022-12-18T17:03:33;0.60;;;0.40;;
33862;SDS011;20158;51.436;-2.742;2022-12-18T17:06:18;0.55;;;0.50;;
33862;SDS011;20158;51.436;-2.742;2022-12-18T17:09:04;0.70;;;0.60;;
33862;SDS011;20158;51.436;-2.742;2022-12-18T17:11:51;0.43;;;0.40;;
33862;SDS011;20158;51.436;-2.742;2022-12-18T17:14:36;0.60;;;0.50;;
33862;SDS011;20158;51.436;-2.742;2022-12-18T17:17:20;0.98;;;0.70;;
33862;SDS011;20158;51.436;-2.742;2022-12-18T17:20:05;2.50;;;0.50;;
33862;SDS011;20158;51.436;-2.742;2022-12-18T17:22:50;0.75;;;0.43;;
33862;SDS011;20158;51.436;-2.742;2022-12-18T17:25:38;1.20;;;0.60;;
33862;SDS011;20158;51.436;-2.742;2022-12-18T17:28:26;1.17;;;0.50;;
33862;SDS011;20158;51.436;-2.742;2022-12-18T17:31:11;1.02;;;0.60;;
33862;SDS011;20158;51.436;-2.742;2022-12-18T17:33:57;1.02;;;0.60;;
33862;SDS011;20158;51.436;-2.742;2022-12-18T17:36:43;1.70;;;0.65;;
33862;SDS011;20158;51.436;-2.742;2022-12-18T17:39:28;1.17;;;0.63;;
33862;SDS011;20158;51.436;-2.742;2022-12-18T17:42:13;1.58;;;0.60;;
33862;SDS011;20158;51.436;-2.742;2022-12-18T17:44:58;1.38;;;1.08;;
33862;SDS011;20158;51.436;-2.742;2022-12-18T17:47:42;1.35;;;0.75;;
33862;SDS011;20158;51.436;-2.742;2022-12-18T17:50:27;1.65;;;0.52;;
33862;SDS011;20158;51.436;-2.742;2022-12-18T17:53:11;1.92;;;0.70;;
33862;SDS011;20158;51.436;-2.742;2022-12-18T17:55:56;1.85;;;0.85;;
33862;SDS011;20158;51.436;-2.742;2022-12-18T17:58:45;0.73;;;0.50;;
33862;SDS011;20158;51.436;-2.742;2022-12-18T18:01:30;2.70;;;0.80;;
33862;SDS011;20158;51.436;-2.742;2022-12-18T18:04:15;1.85;;;0.70;;
33862;SDS011;20158;51.436;-2.742;2022-12-18T18:06:59;1.83;;;0.70;;
33862;SDS011;20158;51.436;-2.742;2022-12-18T18:09:44;1.90;;;0.80;;
33862;SDS011;20158;51.436;-2.742;2022-12-18T18:12:29;2.05;;;1.00;;